Terminal Aerodrome Forecast
Issued by NWS Boston, MA

Home | Current Version | Previous Version | Text Only | Print | Product List | Glossary On
Versions: 1 2 3 4 5 6 7 8 9 10 11 12 13 14 15 16 17 18 19 20 21 22 23 24 25 26 27 28
000
FTUS41 KBOX 231126
TAFBDL
TAF
KBDL 231126Z 2312/2418 36013G24KT 6SM SHRA OVC015
     FM231300 36013G24KT 6SM SHRA OVC015
     FM231800 36013G25KT P6SM OVC020
     FM240500 34009KT P6SM OVC015
     FM241400 33008KT P6SM OVC035=

USA.gov is the U.S. government's official web portal to all federal, state and local government web resources and services.